sensor_id;sensor_type;location;lat;lon;timestamp;pressure;altitude;pressure_sealevel;temperature;humidity
21824;BME280;11074;48.596;9.238;2023-01-25T00:02:21;99812.63;;;5.07;89.31
21824;BME280;11074;48.596;9.238;2023-01-25T00:04:47;99806.16;;;5.10;88.55
21824;BME280;11074;48.596;9.238;2023-01-25T00:07:12;99797.09;;;5.04;88.11
21824;BME280;11074;48.596;9.238;2023-01-25T00:09:38;99792.06;;;5.09;88.84
21824;BME280;11074;48.596;9.238;2023-01-25T00:12:04;99789.63;;;5.08;88.22
21824;BME280;11074;48.596;9.238;2023-01-25T00:14:30;99782.19;;;5.03;88.72
21824;BME280;11074;48.596;9.238;2023-01-25T00:16:55;99780.34;;;5.04;88.23
21824;BME280;11074;48.596;9.238;2023-01-25T00:19:21;99786.97;;;5.08;87.94
21824;BME280;11074;48.596;9.238;2023-01-25T00:21:48;99786.47;;;5.04;88.15
21824;BME280;11074;48.596;9.238;2023-01-25T00:24:14;99784.47;;;5.06;88.49
21824;BME280;11074;48.596;9.238;2023-01-25T00:26:41;99776.88;;;5.03;88.42
21824;BME280;11074;48.596;9.238;2023-01-25T00:29:12;99788.16;;;5.05;88.25
21824;BME280;11074;48.596;9.238;2023-01-25T00:32:26;99801.84;;;5.09;88.42
21824;BME280;11074;48.596;9.238;2023-01-25T00:34:52;99797.56;;;5.08;88.48
21824;BME280;11074;48.596;9.238;2023-01-25T00:37:38;99799.13;;;5.17;87.92
21824;BME280;11074;48.596;9.238;2023-01-25T00:40:05;99785.59;;;5.12;88.30
21824;BME280;11074;48.596;9.238;2023-01-25T00:42:31;99782.84;;;5.05;87.93
21824;BME280;11074;48.596;9.238;2023-01-25T00:44:56;99777.53;;;5.05;88.59
21824;BME280;11074;48.596;9.238;2023-01-25T00:47:22;99778.72;;;5.03;88.63
21824;BME280;11074;48.596;9.238;2023-01-25T00:49:48;99771.75;;;5.02;88.31
21824;BME280;11074;48.596;9.238;2023-01-25T00:52:14;99772.47;;;4.96;89.18
21824;BME280;11074;48.596;9.238;2023-01-25T00:54:40;99771.00;;;4.93;88.77
21824;BME280;11074;48.596;9.238;2023-01-25T00:57:08;99764.66;;;5.02;88.17
21824;BME280;11074;48.596;9.238;2023-01-25T00:59:34;99774.53;;;5.08;88.81
21824;BME280;11074;48.596;9.238;2023-01-25T01:02:00;99769.66;;;4.97;89.05
21824;BME280;11074;48.596;9.238;2023-01-25T01:04:26;99770.84;;;4.95;88.99
21824;BME280;11074;48.596;9.238;2023-01-25T01:06:53;99777.06;;;5.02;87.96
21824;BME280;11074;48.596;9.238;2023-01-25T01:09:21;99775.88;;;5.04;88.21
21824;BME280;11074;48.596;9.238;2023-01-25T01:11:47;99765.75;;;5.08;88.70
21824;BME280;11074;48.596;9.238;2023-01-25T01:14:13;99765.09;;;5.06;88.39
21824;BME280;11074;48.596;9.238;2023-01-25T01:16:39;99766.41;;;5.10;87.63
21824;BME280;11074;48.596;9.238;2023-01-25T01:19:05;99767.69;;;5.14;87.57
21824;BME280;11074;48.596;9.238;2023-01-25T01:21:31;99768.00;;;5.19;87.68
21824;BME280;11074;48.596;9.238;2023-01-25T01:23:56;99761.31;;;5.23;86.92
21824;BME280;11074;48.596;9.238;2023-01-25T01:26:22;99771.09;;;5.22;87.02
21824;BME280;11074;48.596;9.238;2023-01-25T01:28:48;99757.69;;;5.24;87.54
21824;BME280;11074;48.596;9.238;2023-01-25T01:31:20;99764.09;;;5.29;86.80
21824;BME280;11074;48.596;9.238;2023-01-25T01:33:50;99758.59;;;5.16;87.05
21824;BME280;11074;48.596;9.238;2023-01-25T01:36:19;99767.22;;;5.10;87.25
21824;BME280;11074;48.596;9.238;2023-01-25T01:38:46;99769.88;;;5.10;87.63
21824;BME280;11074;48.596;9.238;2023-01-25T01:41:13;99771.91;;;5.08;87.62
21824;BME280;11074;48.596;9.238;2023-01-25T01:43:39;99760.47;;;5.08;88.17
21824;BME280;11074;48.596;9.238;2023-01-25T01:46:34;99765.41;;;5.11;87.64
21824;BME280;11074;48.596;9.238;2023-01-25T01:49:24;99765.03;;;5.14;87.81
21824;BME280;11074;48.596;9.238;2023-01-25T01:52:10;99764.22;;;5.13;87.10
21824;BME280;11074;48.596;9.238;2023-01-25T01:54:46;99758.09;;;5.13;87.51
21824;BME280;11074;48.596;9.238;2023-01-25T01:57:18;99767.22;;;5.10;87.96
21824;BME280;11074;48.596;9.238;2023-01-25T01:59:55;99759.72;;;5.14;88.08
21824;BME280;11074;48.596;9.238;2023-01-25T02:02:25;99767.41;;;5.09;87.46
21824;BME280;11074;48.596;9.238;2023-01-25T02:04:55;99753.16;;;5.10;87.67
21824;BME280;11074;48.596;9.238;2023-01-25T02:07:36;99757.06;;;5.14;87.44
21824;BME280;11074;48.596;9.238;2023-01-25T02:10:06;99762.22;;;5.15;87.55
21824;BME280;11074;48.596;9.238;2023-01-25T02:12:34;99760.13;;;5.11;87.05
21824;BME280;11074;48.596;9.238;2023-01-25T02:15:01;99747.84;;;5.10;87.20
21824;BME280;11074;48.596;9.238;2023-01-25T02:17:34;99752.88;;;5.05;87.54
21824;BME280;11074;48.596;9.238;2023-01-25T02:20:28;99753.03;;;5.03;88.03
21824;BME280;11074;48.596;9.238;2023-01-25T02:25:36;99746.63;;;4.98;87.27
21824;BME280;11074;48.596;9.238;2023-01-25T02:28:30;99758.81;;;5.07;88.25
21824;BME280;11074;48.596;9.238;2023-01-25T02:30:57;99754.88;;;5.03;87.23
21824;BME280;11074;48.596;9.238;2023-01-25T02:33:25;99754.34;;;5.07;87.75
21824;BME280;11074;48.596;9.238;2023-01-25T02:36:23;99748.19;;;5.07;87.73
21824;BME280;11074;48.596;9.238;2023-01-25T02:39:08;99757.06;;;5.14;87.51
21824;BME280;11074;48.596;9.238;2023-01-25T02:41:43;99746.31;;;5.15;86.54
21824;BME280;11074;48.596;9.238;2023-01-25T02:44:20;99743.66;;;5.15;86.48
21824;BME280;11074;48.596;9.238;2023-01-25T02:46:47;99743.25;;;5.04;86.96
21824;BME280;11074;48.596;9.238;2023-01-25T02:49:14;99734.06;;;5.14;86.37
21824;BME280;11074;48.596;9.238;2023-01-25T02:51:46;99732.06;;;5.16;87.46
21824;BME280;11074;48.596;9.238;2023-01-25T02:54:16;99734.53;;;5.18;86.96
21824;BME280;11074;48.596;9.238;2023-01-25T02:56:42;99730.88;;;5.19;87.38
21824;BME280;11074;48.596;9.238;2023-01-25T02:59:09;99735.66;;;5.23;87.06
21824;BME280;11074;48.596;9.238;2023-01-25T03:01:38;99732.81;;;5.25;86.36
21824;BME280;11074;48.596;9.238;2023-01-25T03:04:05;99735.44;;;5.25;87.31
21824;BME280;11074;48.596;9.238;2023-01-25T03:06:33;99739.13;;;5.24;86.61
21824;BME280;11074;48.596;9.238;2023-01-25T03:08:59;99737.13;;;5.26;86.77
21824;BME280;11074;48.596;9.238;2023-01-25T03:11:25;99730.88;;;5.19;86.50
21824;BME280;11074;48.596;9.238;2023-01-25T03:13:51;99736.34;;;5.17;87.45
21824;BME280;11074;48.596;9.238;2023-01-25T03:16:16;99729.59;;;5.15;86.83
21824;BME280;11074;48.596;9.238;2023-01-25T03:18:43;99717.88;;;5.09;86.52
21824;BME280;11074;48.596;9.238;2023-01-25T03:21:18;99704.34;;;5.04;87.63
21824;BME280;11074;48.596;9.238;2023-01-25T03:23:46;99712.41;;;5.11;87.20
21824;BME280;11074;48.596;9.238;2023-01-25T03:26:16;99720.16;;;5.12;87.17
21824;BME280;11074;48.596;9.238;2023-01-25T03:28:42;99709.00;;;5.02;87.34
21824;BME280;11074;48.596;9.238;2023-01-25T03:31:11;99702.16;;;5.08;86.79
21824;BME280;11074;48.596;9.238;2023-01-25T03:33:38;99704.25;;;5.12;87.42
21824;BME280;11074;48.596;9.238;2023-01-25T03:36:05;99692.66;;;5.13;87.47
21824;BME280;11074;48.596;9.238;2023-01-25T03:38:31;99694.97;;;5.16;87.27
21824;BME280;11074;48.596;9.238;2023-01-25T03:40:57;99695.31;;;5.13;86.32
21824;BME280;11074;48.596;9.238;2023-01-25T03:43:23;99689.25;;;5.05;86.64
21824;BME280;11074;48.596;9.238;2023-01-25T03:45:57;99685.78;;;5.04;87.70
21824;BME280;11074;48.596;9.238;2023-01-25T03:48:25;99694.22;;;5.08;87.13
21824;BME280;11074;48.596;9.238;2023-01-25T03:50:56;99688.56;;;5.11;86.61
21824;BME280;11074;48.596;9.238;2023-01-25T03:53:28;99681.25;;;5.13;87.26
21824;BME280;11074;48.596;9.238;2023-01-25T03:56:00;99680.69;;;5.17;86.60
21824;BME280;11074;48.596;9.238;2023-01-25T03:58:28;99675.75;;;5.14;86.70
21824;BME280;11074;48.596;9.238;2023-01-25T04:00:57;99681.53;;;5.18;87.17
21824;BME280;11074;48.596;9.238;2023-01-25T04:03:23;99682.88;;;5.14;86.75
21824;BME280;11074;48.596;9.238;2023-01-25T04:05:50;99684.72;;;5.13;87.15
21824;BME280;11074;48.596;9.238;2023-01-25T04:08:17;99676.78;;;5.13;87.15
21824;BME280;11074;48.596;9.238;2023-01-25T04:10:42;99679.22;;;5.15;86.21
21824;BME280;11074;48.596;9.238;2023-01-25T04:13:09;99676.09;;;5.11;86.22
21824;BME280;11074;48.596;9.238;2023-01-25T04:15:35;99677.75;;;5.12;86.53
21824;BME280;11074;48.596;9.238;2023-01-25T04:18:00;99675.47;;;5.09;86.37
21824;BME280;11074;48.596;9.238;2023-01-25T04:20:26;99683.41;;;5.09;86.64
21824;BME280;11074;48.596;9.238;2023-01-25T04:22:52;99679.56;;;5.12;87.48
21824;BME280;11074;48.596;9.238;2023-01-25T04:25:17;99685.44;;;5.07;87.53
21824;BME280;11074;48.596;9.238;2023-01-25T04:27:43;99679.94;;;5.09;86.56
21824;BME280;11074;48.596;9.238;2023-01-25T04:30:09;99683.88;;;5.13;87.02
21824;BME280;11074;48.596;9.238;2023-01-25T04:32:36;99680.22;;;5.14;87.09
21824;BME280;11074;48.596;9.238;2023-01-25T04:35:02;99683.06;;;5.12;87.06
21824;BME280;11074;48.596;9.238;2023-01-25T04:37:28;99683.59;;;5.08;86.19
21824;BME280;11074;48.596;9.238;2023-01-25T04:39:53;99676.00;;;5.05;86.36
21824;BME280;11074;48.596;9.238;2023-01-25T04:42:19;99675.19;;;5.04;86.59
21824;BME280;11074;48.596;9.238;2023-01-25T04:44:45;99679.38;;;4.99;87.23
21824;BME280;11074;48.596;9.238;2023-01-25T04:47:10;99678.47;;;5.06;87.41
21824;BME280;11074;48.596;9.238;2023-01-25T04:49:36;99673.84;;;5.08;86.56
21824;BME280;11074;48.596;9.238;2023-01-25T04:52:02;99676.09;;;5.11;86.45
21824;BME280;11074;48.596;9.238;2023-01-25T04:54:27;99678.94;;;5.10;85.77
21824;BME280;11074;48.596;9.238;2023-01-25T04:56:53;99675.09;;;5.12;86.69
21824;BME280;11074;48.596;9.238;2023-01-25T04:59:19;99668.16;;;5.11;86.95
21824;BME280;11074;48.596;9.238;2023-01-25T05:01:45;99672.81;;;5.09;86.78
21824;BME280;11074;48.596;9.238;2023-01-25T05:04:10;99661.09;;;5.04;86.77
21824;BME280;11074;48.596;9.238;2023-01-25T05:06:36;99665.06;;;5.08;86.08
21824;BME280;11074;48.596;9.238;2023-01-25T05:09:02;99664.50;;;5.12;85.97
21824;BME280;11074;48.596;9.238;2023-01-25T05:11:28;99663.88;;;5.10;86.77
21824;BME280;11074;48.596;9.238;2023-01-25T05:13:53;99668.97;;;5.12;86.81
21824;BME280;11074;48.596;9.238;2023-01-25T05:16:19;99668.81;;;5.13;86.79
21824;BME280;11074;48.596;9.238;2023-01-25T05:18:45;99676.00;;;5.05;86.54
21824;BME280;11074;48.596;9.238;2023-01-25T05:21:11;99664.59;;;5.04;85.75
21824;BME280;11074;48.596;9.238;2023-01-25T05:23:56;99654.34;;;5.01;86.37
21824;BME280;11074;48.596;9.238;2023-01-25T05:26:22;99652.78;;;5.07;86.53
21824;BME280;11074;48.596;9.238;2023-01-25T05:29:08;99659.22;;;5.12;86.58
21824;BME280;11074;48.596;9.238;2023-01-25T05:31:34;99658.22;;;5.13;85.79
21824;BME280;11074;48.596;9.238;2023-01-25T05:34:00;99648.31;;;5.07;86.35
21824;BME280;11074;48.596;9.238;2023-01-25T05:36:26;99646.84;;;5.05;85.63
21824;BME280;11074;48.596;9.238;2023-01-25T05:38:51;99649.16;;;5.08;86.56
21824;BME280;11074;48.596;9.238;2023-01-25T05:41:18;99656.75;;;5.11;86.42
21824;BME280;11074;48.596;9.238;2023-01-25T05:43:47;99653.00;;;5.05;86.32
21824;BME280;11074;48.596;9.238;2023-01-25T05:46:13;99654.81;;;5.05;85.79
21824;BME280;11074;48.596;9.238;2023-01-25T05:48:42;99654.44;;;5.08;86.40
21824;BME280;11074;48.596;9.238;2023-01-25T05:51:08;99650.78;;;5.09;85.60
21824;BME280;11074;48.596;9.238;2023-01-25T05:53:33;99648.13;;;5.09;86.57
21824;BME280;11074;48.596;9.238;2023-01-25T05:56:07;99648.97;;;5.09;85.72
21824;BME280;11074;48.596;9.238;2023-01-25T05:58:33;99649.16;;;5.08;85.85
21824;BME280;11074;48.596;9.238;2023-01-25T06:01:00;99653.69;;;4.99;86.06
21824;BME280;11074;48.596;9.238;2023-01-25T06:03:26;99658.44;;;4.89;86.46
21824;BME280;11074;48.596;9.238;2023-01-25T06:06:00;99648.13;;;4.94;86.21
21824;BME280;11074;48.596;9.238;2023-01-25T06:08:30;99655.88;;;4.96;86.19
21824;BME280;11074;48.596;9.238;2023-01-25T06:11:05;99651.25;;;4.98;86.27
21824;BME280;11074;48.596;9.238;2023-01-25T06:13:31;99653.16;;;5.04;85.82
21824;BME280;11074;48.596;9.238;2023-01-25T06:15:57;99651.69;;;5.01;85.60
21824;BME280;11074;48.596;9.238;2023-01-25T06:18:23;99647.22;;;5.02;85.57
21824;BME280;11074;48.596;9.238;2023-01-25T06:20:49;99639.53;;;5.07;85.95
21824;BME280;11074;48.596;9.238;2023-01-25T06:23:15;99648.97;;;5.09;85.06
21824;BME280;11074;48.596;9.238;2023-01-25T06:25:41;99641.91;;;5.02;85.50
21824;BME280;11074;48.596;9.238;2023-01-25T06:28:07;99652.50;;;5.02;85.83
21824;BME280;11074;48.596;9.238;2023-01-25T06:30:33;99646.03;;;5.04;86.00
21824;BME280;11074;48.596;9.238;2023-01-25T06:33:00;99647.50;;;5.07;85.76
21824;BME280;11074;48.596;9.238;2023-01-25T06:35:27;99642.56;;;5.04;85.38
21824;BME280;11074;48.596;9.238;2023-01-25T06:37:57;99646.84;;;5.05;85.13
21824;BME280;11074;48.596;9.238;2023-01-25T06:40:24;99651.97;;;5.06;85.77
21824;BME280;11074;48.596;9.238;2023-01-25T06:42:50;99646.66;;;5.06;85.24
21824;BME280;11074;48.596;9.238;2023-01-25T06:45:17;99655.28;;;5.08;85.69
21824;BME280;11074;48.596;9.238;2023-01-25T06:47:43;99640.38;;;5.07;85.28
21824;BME280;11074;48.596;9.238;2023-01-25T06:50:09;99644.00;;;5.06;85.87
21824;BME280;11074;48.596;9.238;2023-01-25T06:52:35;99639.28;;;5.02;84.94
21824;BME280;11074;48.596;9.238;2023-01-25T06:55:03;99644.22;;;5.05;85.37
21824;BME280;11074;48.596;9.238;2023-01-25T06:57:28;99634.69;;;4.96;84.91
21824;BME280;11074;48.596;9.238;2023-01-25T06:59:54;99640.25;;;5.01;85.69
21824;BME280;11074;48.596;9.238;2023-01-25T07:02:20;99639.91;;;5.04;84.90
21824;BME280;11074;48.596;9.238;2023-01-25T07:04:46;99629.78;;;5.07;85.01
21824;BME280;11074;48.596;9.238;2023-01-25T07:07:13;99627.97;;;5.08;84.76
21824;BME280;11074;48.596;9.238;2023-01-25T07:09:39;99635.22;;;5.06;84.33
21824;BME280;11074;48.596;9.238;2023-01-25T07:12:05;99623.38;;;5.02;84.57
21824;BME280;11074;48.596;9.238;2023-01-25T07:14:32;99623.84;;;5.05;84.27
21824;BME280;11074;48.596;9.238;2023-01-25T07:16:58;99625.19;;;5.01;84.20
21824;BME280;11074;48.596;9.238;2023-01-25T07:19:24;99620.91;;;5.00;83.74
21824;BME280;11074;48.596;9.238;2023-01-25T07:21:50;99624.63;;;5.06;83.75
21824;BME280;11074;48.596;9.238;2023-01-25T07:24:18;99610.75;;;5.04;83.96
21824;BME280;11074;48.596;9.238;2023-01-25T07:26:45;99611.59;;;5.04;84.04
21824;BME280;11074;48.596;9.238;2023-01-25T07:29:14;99606.63;;;5.01;84.32
21824;BME280;11074;48.596;9.238;2023-01-25T07:31:41;99612.56;;;5.03;83.16
21824;BME280;11074;48.596;9.238;2023-01-25T07:34:10;99614.50;;;5.09;83.39
21824;BME280;11074;48.596;9.238;2023-01-25T07:36:38;99604.75;;;5.10;83.36
21824;BME280;11074;48.596;9.238;2023-01-25T07:39:04;99615.16;;;5.11;84.05
21824;BME280;11074;48.596;9.238;2023-01-25T07:41:30;99611.50;;;5.12;84.33
21824;BME280;11074;48.596;9.238;2023-01-25T07:43:57;99618.34;;;5.07;84.03
21824;BME280;11074;48.596;9.238;2023-01-25T07:46:23;99606.09;;;5.06;83.44
21824;BME280;11074;48.596;9.238;2023-01-25T07:48:51;99602.91;;;5.10;83.57
21824;BME280;11074;48.596;9.238;2023-01-25T07:51:19;99606.66;;;5.16;84.02
21824;BME280;11074;48.596;9.238;2023-01-25T07:54:01;99595.03;;;5.17;83.20
21824;BME280;11074;48.596;9.238;2023-01-25T07:56:31;99607.50;;;5.16;83.21
21824;BME280;11074;48.596;9.238;2023-01-25T07:58:59;99609.75;;;5.19;83.30
21824;BME280;11074;48.596;9.238;2023-01-25T08:01:28;99611.31;;;5.14;83.70
21824;BME280;11074;48.596;9.238;2023-01-25T08:03:56;99608.38;;;5.09;83.08
21824;BME280;11074;48.596;9.238;2023-01-25T08:06:29;99608.03;;;5.12;82.78
21824;BME280;11074;48.596;9.238;2023-01-25T08:09:13;99614.78;;;5.14;82.48
21824;BME280;11074;48.596;9.238;2023-01-25T08:11:41;99610.16;;;5.16;83.36
21824;BME280;11074;48.596;9.238;2023-01-25T08:14:07;99612.88;;;5.08;82.26
21824;BME280;11074;48.596;9.238;2023-01-25T08:16:33;99608.03;;;5.12;82.33
21824;BME280;11074;48.596;9.238;2023-01-25T08:19:01;99607.50;;;5.16;82.67
21824;BME280;11074;48.596;9.238;2023-01-25T08:21:31;99617.00;;;5.11;82.51
21824;BME280;11074;48.596;9.238;2023-01-25T08:24:00;99612.59;;;5.18;82.88
21824;BME280;11074;48.596;9.238;2023-01-25T08:26:27;99615.06;;;5.19;83.68
21824;BME280;11074;48.596;9.238;2023-01-25T08:28:54;99611.06;;;5.23;82.49
21824;BME280;11074;48.596;9.238;2023-01-25T08:31:24;99610.69;;;5.26;83.14
21824;BME280;11074;48.596;9.238;2023-01-25T08:33:52;99611.22;;;5.22;82.08
21824;BME280;11074;48.596;9.238;2023-01-25T08:36:19;99607.38;;;5.24;82.86
21824;BME280;11074;48.596;9.238;2023-01-25T08:38:46;99602.63;;;5.20;82.48
21824;BME280;11074;48.596;9.238;2023-01-25T08:41:17;99597.25;;;5.13;81.60
21824;BME280;11074;48.596;9.238;2023-01-25T08:43:45;99611.41;;;5.20;82.38
21824;BME280;11074;48.596;9.238;2023-01-25T08:46:14;99599.34;;;5.18;82.10
21824;BME280;11074;48.596;9.238;2023-01-25T08:48:40;99598.78;;;5.22;82.25
21824;BME280;11074;48.596;9.238;2023-01-25T08:51:12;99598.28;;;5.27;82.25
21824;BME280;11074;48.596;9.238;2023-01-25T08:53:38;99588.03;;;5.24;81.16
21824;BME280;11074;48.596;9.238;2023-01-25T08:56:07;99596.78;;;5.24;81.08
21824;BME280;11074;48.596;9.238;2023-01-25T08:58:36;99578.63;;;5.21;82.16
21824;BME280;11074;48.596;9.238;2023-01-25T09:01:05;99577.59;;;5.22;82.25
21824;BME280;11074;48.596;9.238;2023-01-25T09:03:38;99576.13;;;5.20;81.03
21824;BME280;11074;48.596;9.238;2023-01-25T09:06:06;99584.91;;;5.20;81.01
21824;BME280;11074;48.596;9.238;2023-01-25T09:08:33;99565.53;;;5.20;82.22
21824;BME280;11074;48.596;9.238;2023-01-25T09:11:08;99569.09;;;5.27;81.64
21824;BME280;11074;48.596;9.238;2023-01-25T09:13:34;99563.91;;;5.19;80.54
21824;BME280;11074;48.596;9.238;2023-01-25T09:16:02;99569.47;;;5.09;80.45
21824;BME280;11074;48.596;9.238;2023-01-25T09:18:30;99567.63;;;5.10;81.15
21824;BME280;11074;48.596;9.238;2023-01-25T09:20:57;99570.91;;;5.12;81.50
21824;BME280;11074;48.596;9.238;2023-01-25T09:23:24;99570.56;;;5.00;81.59
21824;BME280;11074;48.596;9.238;2023-01-25T09:26:00;99576.94;;;5.06;81.69
21824;BME280;11074;48.596;9.238;2023-01-25T09:28:28;99584.00;;;5.13;81.99
21824;BME280;11074;48.596;9.238;2023-01-25T09:30:56;99568.47;;;5.10;81.74
21824;BME280;11074;48.596;9.238;2023-01-25T09:33:27;99576.22;;;5.12;81.41
21824;BME280;11074;48.596;9.238;2023-01-25T09:35:53;99574.00;;;5.01;81.40
21824;BME280;11074;48.596;9.238;2023-01-25T09:38:20;99579.41;;;5.07;81.47
21824;BME280;11074;48.596;9.238;2023-01-25T09:46:46;99567.34;;;5.19;82.52
21824;BME280;11074;48.596;9.238;2023-01-25T09:54:52;99570.09;;;5.11;81.70
21824;BME280;11074;48.596;9.238;2023-01-25T09:57:33;99575.22;;;5.13;80.60
21824;BME280;11074;48.596;9.238;2023-01-25T10:00:15;99570.28;;;5.10;81.56
21824;BME280;11074;48.596;9.238;2023-01-25T10:02:51;99568.47;;;5.10;81.99
21824;BME280;11074;48.596;9.238;2023-01-25T10:05:24;99567.28;;;5.13;81.07
21824;BME280;11074;48.596;9.238;2023-01-25T10:08:16;99566.25;;;5.14;81.34
21824;BME280;11074;48.596;9.238;2023-01-25T10:10:49;99570.66;;;5.21;81.00
21824;BME280;11074;48.596;9.238;2023-01-25T10:13:21;99567.53;;;5.18;81.17
21824;BME280;11074;48.596;9.238;2023-01-25T10:16:40;99557.41;;;5.21;81.21
21824;BME280;11074;48.596;9.238;2023-01-25T10:22:22;99562.25;;;5.18;81.94
21824;BME280;11074;48.596;9.238;2023-01-25T10:24:59;99562.31;;;5.24;82.40
21824;BME280;11074;48.596;9.238;2023-01-25T10:28:17;99549.00;;;5.18;80.41
21824;BME280;11074;48.596;9.238;2023-01-25T10:31:15;99559.22;;;4.92;81.31
21824;BME280;11074;48.596;9.238;2023-01-25T10:33:44;99541.13;;;4.95;81.60
21824;BME280;11074;48.596;9.238;2023-01-25T10:36:29;99538.09;;;4.98;81.95
21824;BME280;11074;48.596;9.238;2023-01-25T10:38:55;99533.91;;;5.04;81.90
21824;BME280;11074;48.596;9.238;2023-01-25T10:41:38;99539.41;;;5.02;81.79
21824;BME280;11074;48.596;9.238;2023-01-25T10:44:12;99533.06;;;5.03;81.05
21824;BME280;11074;48.596;9.238;2023-01-25T10:49:57;99520.66;;;5.04;81.97
21824;BME280;11074;48.596;9.238;2023-01-25T10:52:32;99534.38;;;5.07;81.81
21824;BME280;11074;48.596;9.238;2023-01-25T10:55:20;99519.66;;;5.05;82.11
21824;BME280;11074;48.596;9.238;2023-01-25T10:57:53;99511.50;;;5.06;82.05
21824;BME280;11074;48.596;9.238;2023-01-25T11:00:33;99516.66;;;5.08;82.33
21824;BME280;11074;48.596;9.238;2023-01-25T11:03:00;99506.47;;;5.11;82.08
21824;BME280;11074;48.596;9.238;2023-01-25T11:05:36;99498.72;;;5.10;82.40
21824;BME280;11074;48.596;9.238;2023-01-25T11:10:57;99513.72;;;5.03;81.90
21824;BME280;11074;48.596;9.238;2023-01-25T11:13:32;99504.94;;;5.02;82.04
21824;BME280;11074;48.596;9.238;2023-01-25T11:18:31;99501.75;;;5.07;81.22
21824;BME280;11074;48.596;9.238;2023-01-25T11:21:12;99503.13;;;5.03;81.22
21824;BME280;11074;48.596;9.238;2023-01-25T11:26:38;99488.78;;;4.97;82.85
21824;BME280;11074;48.596;9.238;2023-01-25T11:29:21;99501.09;;;4.75;82.42
21824;BME280;11074;48.596;9.238;2023-01-25T11:31:54;99497.16;;;4.71;82.26
21824;BME280;11074;48.596;9.238;2023-01-25T11:34:26;99493.78;;;4.77;82.32
21824;BME280;11074;48.596;9.238;2023-01-25T11:37:03;99489.50;;;4.91;83.38
21824;BME280;11074;48.596;9.238;2023-01-25T11:40:19;99479.63;;;4.85;82.67
21824;BME280;11074;48.596;9.238;2023-01-25T11:43:12;99475.91;;;4.94;83.16
21824;BME280;11074;48.596;9.238;2023-01-25T11:52:01;99469.38;;;5.11;82.23
21824;BME280;11074;48.596;9.238;2023-01-25T11:57:40;99454.31;;;5.12;81.76
21824;BME280;11074;48.596;9.238;2023-01-25T12:00:40;99445.38;;;5.13;82.34
21824;BME280;11074;48.596;9.238;2023-01-25T12:11:52;99434.19;;;5.17;81.13
21824;BME280;11074;48.596;9.238;2023-01-25T12:23:21;99400.41;;;5.05;81.58
21824;BME280;11074;48.596;9.238;2023-01-25T12:28:52;99384.88;;;5.02;80.83
21824;BME280;11074;48.596;9.238;2023-01-25T12:31:36;99380.78;;;4.99;81.70
21824;BME280;11074;48.596;9.238;2023-01-25T12:34:18;99370.69;;;5.09;82.29
21824;BME280;11074;48.596;9.238;2023-01-25T12:36:47;99371.31;;;5.11;81.61
21824;BME280;11074;48.596;9.238;2023-01-25T12:39:27;99370.38;;;4.98;80.66
21824;BME280;11074;48.596;9.238;2023-01-25T12:42:07;99357.81;;;5.06;81.00
21824;BME280;11074;48.596;9.238;2023-01-25T12:47:38;99354.88;;;5.16;81.48
21824;BME280;11074;48.596;9.238;2023-01-25T12:50:22;99343.91;;;5.19;81.21
21824;BME280;11074;48.596;9.238;2023-01-25T12:53:04;99347.59;;;5.24;81.91
21824;BME280;11074;48.596;9.238;2023-01-25T12:55:32;99338.84;;;5.24;81.14
21824;BME280;11074;48.596;9.238;2023-01-25T13:04:25;99333.44;;;5.32;80.27
21824;BME280;11074;48.596;9.238;2023-01-25T13:07:15;99326.16;;;5.19;81.31
21824;BME280;11074;48.596;9.238;2023-01-25T13:10:19;99318.72;;;5.08;80.57
21824;BME280;11074;48.596;9.238;2023-01-25T13:13:00;99315.03;;;5.09;81.73
21824;BME280;11074;48.596;9.238;2023-01-25T13:15:43;99310.44;;;5.18;82.31
21824;BME280;11074;48.596;9.238;2023-01-25T13:21:00;99302.25;;;5.13;81.70
21824;BME280;11074;48.596;9.238;2023-01-25T13:23:42;99297.41;;;5.16;81.43
21824;BME280;11074;48.596;9.238;2023-01-25T13:28:57;99294.28;;;5.13;79.88
21824;BME280;11074;48.596;9.238;2023-01-25T13:37:29;99278.31;;;5.06;80.86
21824;BME280;11074;48.596;9.238;2023-01-25T13:43:18;99277.00;;;5.17;81.71
21824;BME280;11074;48.596;9.238;2023-01-25T13:45:49;99281.91;;;5.20;80.84
21824;BME280;11074;48.596;9.238;2023-01-25T13:48:22;99272.22;;;5.27;80.60
21824;BME280;11074;48.596;9.238;2023-01-25T13:51:10;99279.03;;;5.15;81.73
21824;BME280;11074;48.596;9.238;2023-01-25T13:53:38;99274.16;;;5.18;82.00
21824;BME280;11074;48.596;9.238;2023-01-25T13:56:23;99268.41;;;5.15;82.25
21824;BME280;11074;48.596;9.238;2023-01-25T13:58:49;99274.41;;;5.23;80.89
21824;BME280;11074;48.596;9.238;2023-01-25T14:01:18;99277.09;;;5.30;81.57
21824;BME280;11074;48.596;9.238;2023-01-25T14:03:57;99275.13;;;5.32;81.60
21824;BME280;11074;48.596;9.238;2023-01-25T14:06:37;99266.72;;;5.28;80.91
21824;BME280;11074;48.596;9.238;2023-01-25T14:09:14;99261.78;;;5.25;80.56
21824;BME280;11074;48.596;9.238;2023-01-25T14:12:02;99265.25;;;5.26;80.05
21824;BME280;11074;48.596;9.238;2023-01-25T14:14:33;99258.75;;;5.28;80.79
21824;BME280;11074;48.596;9.238;2023-01-25T14:17:23;99257.09;;;5.27;80.36
21824;BME280;11074;48.596;9.238;2023-01-25T14:19:53;99247.66;;;5.18;79.87
21824;BME280;11074;48.596;9.238;2023-01-25T14:22:32;99254.84;;;5.24;80.41
21824;BME280;11074;48.596;9.238;2023-01-25T14:25:12;99245.28;;;5.30;80.05
21824;BME280;11074;48.596;9.238;2023-01-25T14:27:49;99242.78;;;5.22;80.23
21824;BME280;11074;48.596;9.238;2023-01-25T14:30:30;99249.28;;;5.19;81.07
21824;BME280;11074;48.596;9.238;2023-01-25T14:32:59;99241.16;;;5.21;80.51
21824;BME280;11074;48.596;9.238;2023-01-25T14:37:57;99252.38;;;5.23;80.06
21824;BME280;11074;48.596;9.238;2023-01-25T14:40:26;99255.91;;;5.30;79.68
21824;BME280;11074;48.596;9.238;2023-01-25T14:42:54;99246.31;;;5.29;79.72
21824;BME280;11074;48.596;9.238;2023-01-25T14:45:21;99253.84;;;5.25;80.28
21824;BME280;11074;48.596;9.238;2023-01-25T14:47:49;99253.34;;;5.15;79.96
21824;BME280;11074;48.596;9.238;2023-01-25T14:50:34;99252.97;;;4.97;79.83
21824;BME280;11074;48.596;9.238;2023-01-25T14:53:21;99244.19;;;4.97;80.80
21824;BME280;11074;48.596;9.238;2023-01-25T14:55:49;99250.06;;;4.92;80.82
21824;BME280;11074;48.596;9.238;2023-01-25T14:58:19;99248.63;;;4.89;81.10